sensor_id;sensor_type;location;lat;lon;timestamp;temperature;humidity
55771;DHT22;41687;-33.234;-60.334;2023-11-19T00:00:09;19.90;26.90
55771;DHT22;41687;-33.234;-60.334;2023-11-19T00:02:40;19.90;27.60
55771;DHT22;41687;-33.234;-60.334;2023-11-19T00:05:08;19.80;28.40
55771;DHT22;41687;-33.234;-60.334;2023-11-19T00:07:37;19.80;29.00
55771;DHT22;41687;-33.234;-60.334;2023-11-19T00:10:16;19.70;29.20
55771;DHT22;41687;-33.234;-60.334;2023-11-19T00:12:48;19.70;30.40
55771;DHT22;41687;-33.234;-60.334;2023-11-19T00:15:17;19.70;30.10
55771;DHT22;41687;-33.234;-60.334;2023-11-19T00:17:46;19.70;31.20
55771;DHT22;41687;-33.234;-60.334;2023-11-19T00:20:18;19.70;32.00
55771;DHT22;41687;-33.234;-60.334;2023-11-19T00:22:47;19.60;32.50
55771;DHT22;41687;-33.234;-60.334;2023-11-19T00:25:23;19.60;32.70
55771;DHT22;41687;-33.234;-60.334;2023-11-19T00:27:52;19.60;32.20
55771;DHT22;41687;-33.234;-60.334;2023-11-19T00:30:21;19.50;31.70
55771;DHT22;41687;-33.234;-60.334;2023-11-19T00:32:48;19.50;32.30
55771;DHT22;41687;-33.234;-60.334;2023-11-19T00:35:16;19.50;31.90
55771;DHT22;41687;-33.234;-60.334;2023-11-19T00:37:43;19.50;32.30
55771;DHT22;41687;-33.234;-60.334;2023-11-19T00:40:13;19.40;32.40
55771;DHT22;41687;-33.234;-60.334;2023-11-19T00:42:42;19.40;34.00
55771;DHT22;41687;-33.234;-60.334;2023-11-19T00:45:10;19.40;33.40
55771;DHT22;41687;-33.234;-60.334;2023-11-19T00:47:40;19.40;33.70
55771;DHT22;41687;-33.234;-60.334;2023-11-19T00:50:08;19.30;33.80
55771;DHT22;41687;-33.234;-60.334;2023-11-19T00:52:40;19.30;34.50
55771;DHT22;41687;-33.234;-60.334;2023-11-19T00:55:08;19.30;35.50
55771;DHT22;41687;-33.234;-60.334;2023-11-19T00:57:35;19.30;36.90
55771;DHT22;41687;-33.234;-60.334;2023-11-19T01:00:04;19.30;37.20
55771;DHT22;41687;-33.234;-60.334;2023-11-19T01:02:40;19.30;36.70
55771;DHT22;41687;-33.234;-60.334;2023-11-19T01:05:09;19.30;35.50
55771;DHT22;41687;-33.234;-60.334;2023-11-19T01:07:37;19.40;37.10
55771;DHT22;41687;-33.234;-60.334;2023-11-19T01:10:06;19.30;36.40
55771;DHT22;41687;-33.234;-60.334;2023-11-19T01:12:35;19.30;37.90
55771;DHT22;41687;-33.234;-60.334;2023-11-19T01:15:06;19.30;37.60
55771;DHT22;41687;-33.234;-60.334;2023-11-19T01:17:36;19.30;38.10
55771;DHT22;41687;-33.234;-60.334;2023-11-19T01:20:05;19.20;35.50
55771;DHT22;41687;-33.234;-60.334;2023-11-19T01:22:33;19.30;35.90
55771;DHT22;41687;-33.234;-60.334;2023-11-19T01:25:01;19.30;34.90
55771;DHT22;41687;-33.234;-60.334;2023-11-19T01:27:29;19.20;35.10
55771;DHT22;41687;-33.234;-60.334;2023-11-19T01:29:57;19.20;33.50
55771;DHT22;41687;-33.234;-60.334;2023-11-19T01:32:25;19.20;31.80
55771;DHT22;41687;-33.234;-60.334;2023-11-19T01:34:53;19.30;30.60
55771;DHT22;41687;-33.234;-60.334;2023-11-19T01:37:20;19.30;29.70
55771;DHT22;41687;-33.234;-60.334;2023-11-19T01:39:48;19.20;29.40
55771;DHT22;41687;-33.234;-60.334;2023-11-19T01:42:16;19.20;29.20
55771;DHT22;41687;-33.234;-60.334;2023-11-19T01:44:58;19.10;28.60
55771;DHT22;41687;-33.234;-60.334;2023-11-19T01:47:27;19.10;28.70
55771;DHT22;41687;-33.234;-60.334;2023-11-19T01:49:55;19.00;28.10
55771;DHT22;41687;-33.234;-60.334;2023-11-19T01:52:24;19.00;27.80
55771;DHT22;41687;-33.234;-60.334;2023-11-19T01:54:53;19.00;27.50
55771;DHT22;41687;-33.234;-60.334;2023-11-19T01:57:25;19.00;27.70
55771;DHT22;41687;-33.234;-60.334;2023-11-19T01:59:53;19.00;28.10
55771;DHT22;41687;-33.234;-60.334;2023-11-19T02:02:20;19.10;28.50
55771;DHT22;41687;-33.234;-60.334;2023-11-19T02:04:50;19.00;29.00
55771;DHT22;41687;-33.234;-60.334;2023-11-19T02:07:17;19.00;31.00
55771;DHT22;41687;-33.234;-60.334;2023-11-19T02:09:45;19.00;33.50
55771;DHT22;41687;-33.234;-60.334;2023-11-19T02:12:13;19.00;37.20
55771;DHT22;41687;-33.234;-60.334;2023-11-19T02:14:41;19.00;39.70
55771;DHT22;41687;-33.234;-60.334;2023-11-19T02:17:26;18.90;41.10
55771;DHT22;41687;-33.234;-60.334;2023-11-19T02:19:58;18.90;44.30
55771;DHT22;41687;-33.234;-60.334;2023-11-19T02:22:28;18.90;41.70
55771;DHT22;41687;-33.234;-60.334;2023-11-19T02:24:59;18.90;41.30
55771;DHT22;41687;-33.234;-60.334;2023-11-19T02:27:46;18.90;42.00
55771;DHT22;41687;-33.234;-60.334;2023-11-19T02:30:15;18.90;44.80
55771;DHT22;41687;-33.234;-60.334;2023-11-19T02:32:43;18.90;43.00
55771;DHT22;41687;-33.234;-60.334;2023-11-19T02:35:11;18.90;44.60
55771;DHT22;41687;-33.234;-60.334;2023-11-19T02:37:39;18.90;45.20
55771;DHT22;41687;-33.234;-60.334;2023-11-19T02:40:07;18.80;46.20
55771;DHT22;41687;-33.234;-60.334;2023-11-19T02:42:35;18.80;46.00
55771;DHT22;41687;-33.234;-60.334;2023-11-19T02:45:04;18.80;46.90
55771;DHT22;41687;-33.234;-60.334;2023-11-19T02:47:33;18.80;47.10
55771;DHT22;41687;-33.234;-60.334;2023-11-19T02:50:01;18.80;47.50
55771;DHT22;41687;-33.234;-60.334;2023-11-19T02:52:30;18.80;47.00
55771;DHT22;41687;-33.234;-60.334;2023-11-19T02:55:05;18.90;47.30
55771;DHT22;41687;-33.234;-60.334;2023-11-19T02:57:36;18.80;47.50
55771;DHT22;41687;-33.234;-60.334;2023-11-19T03:00:05;18.90;47.30
55771;DHT22;41687;-33.234;-60.334;2023-11-19T03:02:53;18.90;46.70
55771;DHT22;41687;-33.234;-60.334;2023-11-19T03:05:27;18.90;47.40
55771;DHT22;41687;-33.234;-60.334;2023-11-19T03:07:58;18.90;46.60
55771;DHT22;41687;-33.234;-60.334;2023-11-19T03:10:25;18.90;45.20
55771;DHT22;41687;-33.234;-60.334;2023-11-19T03:12:53;18.90;44.90
55771;DHT22;41687;-33.234;-60.334;2023-11-19T03:15:22;18.80;44.50
55771;DHT22;41687;-33.234;-60.334;2023-11-19T03:17:50;18.80;42.70
55771;DHT22;41687;-33.234;-60.334;2023-11-19T03:20:17;18.80;42.50
55771;DHT22;41687;-33.234;-60.334;2023-11-19T03:22:45;18.80;42.80
55771;DHT22;41687;-33.234;-60.334;2023-11-19T03:25:12;18.70;42.30
55771;DHT22;41687;-33.234;-60.334;2023-11-19T03:27:41;18.70;42.30
55771;DHT22;41687;-33.234;-60.334;2023-11-19T03:30:11;18.70;40.90
55771;DHT22;41687;-33.234;-60.334;2023-11-19T03:32:39;18.80;41.30
55771;DHT22;41687;-33.234;-60.334;2023-11-19T03:35:07;18.80;40.20
55771;DHT22;41687;-33.234;-60.334;2023-11-19T03:37:35;18.80;40.70
55771;DHT22;41687;-33.234;-60.334;2023-11-19T03:40:04;18.80;40.50
55771;DHT22;41687;-33.234;-60.334;2023-11-19T03:42:32;18.70;40.40
55771;DHT22;41687;-33.234;-60.334;2023-11-19T03:45:00;18.70;42.50
55771;DHT22;41687;-33.234;-60.334;2023-11-19T03:47:28;18.60;42.60
55771;DHT22;41687;-33.234;-60.334;2023-11-19T03:49:55;18.70;44.80
55771;DHT22;41687;-33.234;-60.334;2023-11-19T03:52:23;18.70;45.20
55771;DHT22;41687;-33.234;-60.334;2023-11-19T03:54:51;18.70;46.50
55771;DHT22;41687;-33.234;-60.334;2023-11-19T03:57:19;18.70;47.60
55771;DHT22;41687;-33.234;-60.334;2023-11-19T03:59:46;18.60;48.50
55771;DHT22;41687;-33.234;-60.334;2023-11-19T04:02:14;18.60;50.00
55771;DHT22;41687;-33.234;-60.334;2023-11-19T04:04:42;18.50;50.40
55771;DHT22;41687;-33.234;-60.334;2023-11-19T04:07:10;18.50;51.10
55771;DHT22;41687;-33.234;-60.334;2023-11-19T04:09:38;18.40;52.60
55771;DHT22;41687;-33.234;-60.334;2023-11-19T04:12:06;18.40;52.20
55771;DHT22;41687;-33.234;-60.334;2023-11-19T04:14:36;18.40;51.30
55771;DHT22;41687;-33.234;-60.334;2023-11-19T04:17:04;18.40;51.40
55771;DHT22;41687;-33.234;-60.334;2023-11-19T04:19:32;18.40;51.30
55771;DHT22;41687;-33.234;-60.334;2023-11-19T04:21:59;18.40;50.50
55771;DHT22;41687;-33.234;-60.334;2023-11-19T04:24:27;18.40;50.10
55771;DHT22;41687;-33.234;-60.334;2023-11-19T04:26:55;18.30;50.40
55771;DHT22;41687;-33.234;-60.334;2023-11-19T04:29:22;18.30;50.00
55771;DHT22;41687;-33.234;-60.334;2023-11-19T04:31:52;18.30;50.50
55771;DHT22;41687;-33.234;-60.334;2023-11-19T04:34:21;18.30;50.50
55771;DHT22;41687;-33.234;-60.334;2023-11-19T04:36:49;18.30;51.00
55771;DHT22;41687;-33.234;-60.334;2023-11-19T04:39:17;18.30;51.60
55771;DHT22;41687;-33.234;-60.334;2023-11-19T04:41:47;18.30;51.00
55771;DHT22;41687;-33.234;-60.334;2023-11-19T04:44:24;18.20;50.20
55771;DHT22;41687;-33.234;-60.334;2023-11-19T04:46:51;18.20;50.90
55771;DHT22;41687;-33.234;-60.334;2023-11-19T04:49:20;18.10;50.60
55771;DHT22;41687;-33.234;-60.334;2023-11-19T04:51:47;18.20;50.20
55771;DHT22;41687;-33.234;-60.334;2023-11-19T04:54:16;18.20;50.40
55771;DHT22;41687;-33.234;-60.334;2023-11-19T04:56:46;18.20;50.60
55771;DHT22;41687;-33.234;-60.334;2023-11-19T04:59:17;18.20;51.00
55771;DHT22;41687;-33.234;-60.334;2023-11-19T05:01:47;18.20;51.40
55771;DHT22;41687;-33.234;-60.334;2023-11-19T05:04:18;18.20;52.40
55771;DHT22;41687;-33.234;-60.334;2023-11-19T05:06:48;18.20;51.90
55771;DHT22;41687;-33.234;-60.334;2023-11-19T05:09:17;18.20;52.70
55771;DHT22;41687;-33.234;-60.334;2023-11-19T05:11:45;18.10;52.10
55771;DHT22;41687;-33.234;-60.334;2023-11-19T05:14:13;18.10;52.00
55771;DHT22;41687;-33.234;-60.334;2023-11-19T05:16:40;18.10;52.80
55771;DHT22;41687;-33.234;-60.334;2023-11-19T05:19:09;18.10;53.30
55771;DHT22;41687;-33.234;-60.334;2023-11-19T05:21:37;18.10;53.90
55771;DHT22;41687;-33.234;-60.334;2023-11-19T05:24:05;18.00;53.90
55771;DHT22;41687;-33.234;-60.334;2023-11-19T05:26:33;17.90;55.60
55771;DHT22;41687;-33.234;-60.334;2023-11-19T05:29:00;17.90;55.90
55771;DHT22;41687;-33.234;-60.334;2023-11-19T05:31:28;17.80;55.40
55771;DHT22;41687;-33.234;-60.334;2023-11-19T05:33:55;17.80;54.80
55771;DHT22;41687;-33.234;-60.334;2023-11-19T05:36:23;17.80;53.70
55771;DHT22;41687;-33.234;-60.334;2023-11-19T05:38:51;17.70;51.40
55771;DHT22;41687;-33.234;-60.334;2023-11-19T05:41:19;17.70;51.40
55771;DHT22;41687;-33.234;-60.334;2023-11-19T05:43:46;17.60;49.80
55771;DHT22;41687;-33.234;-60.334;2023-11-19T05:46:14;17.60;47.30
55771;DHT22;41687;-33.234;-60.334;2023-11-19T05:48:41;17.60;46.30
55771;DHT22;41687;-33.234;-60.334;2023-11-19T05:51:09;17.60;47.20
55771;DHT22;41687;-33.234;-60.334;2023-11-19T05:53:37;17.60;44.90
55771;DHT22;41687;-33.234;-60.334;2023-11-19T05:56:05;17.60;44.50
55771;DHT22;41687;-33.234;-60.334;2023-11-19T05:58:36;17.60;43.20
55771;DHT22;41687;-33.234;-60.334;2023-11-19T06:01:05;17.60;43.30
55771;DHT22;41687;-33.234;-60.334;2023-11-19T06:03:34;17.50;42.80
55771;DHT22;41687;-33.234;-60.334;2023-11-19T06:06:03;17.50;42.00
55771;DHT22;41687;-33.234;-60.334;2023-11-19T06:08:32;17.50;42.00
55771;DHT22;41687;-33.234;-60.334;2023-11-19T06:11:00;17.40;43.00
55771;DHT22;41687;-33.234;-60.334;2023-11-19T06:13:28;17.40;43.30
55771;DHT22;41687;-33.234;-60.334;2023-11-19T06:15:56;17.40;42.80
55771;DHT22;41687;-33.234;-60.334;2023-11-19T06:18:24;17.40;42.00
55771;DHT22;41687;-33.234;-60.334;2023-11-19T06:20:52;17.40;42.50
55771;DHT22;41687;-33.234;-60.334;2023-11-19T06:23:20;17.30;43.00
55771;DHT22;41687;-33.234;-60.334;2023-11-19T06:25:48;17.30;43.10
55771;DHT22;41687;-33.234;-60.334;2023-11-19T06:28:15;17.30;43.30
55771;DHT22;41687;-33.234;-60.334;2023-11-19T06:30:43;17.20;42.50
55771;DHT22;41687;-33.234;-60.334;2023-11-19T06:33:13;17.30;41.70
55771;DHT22;41687;-33.234;-60.334;2023-11-19T06:35:41;17.30;41.80
55771;DHT22;41687;-33.234;-60.334;2023-11-19T06:38:09;17.20;43.30
55771;DHT22;41687;-33.234;-60.334;2023-11-19T06:40:36;17.20;43.30
55771;DHT22;41687;-33.234;-60.334;2023-11-19T06:43:04;17.20;42.40
55771;DHT22;41687;-33.234;-60.334;2023-11-19T06:45:35;17.20;41.70
55771;DHT22;41687;-33.234;-60.334;2023-11-19T06:48:06;17.20;41.90
55771;DHT22;41687;-33.234;-60.334;2023-11-19T06:50:34;17.20;41.80
55771;DHT22;41687;-33.234;-60.334;2023-11-19T06:53:01;17.20;41.60
55771;DHT22;41687;-33.234;-60.334;2023-11-19T06:55:29;17.20;41.70
55771;DHT22;41687;-33.234;-60.334;2023-11-19T06:58:00;17.20;42.20
55771;DHT22;41687;-33.234;-60.334;2023-11-19T07:00:29;17.10;42.20
55771;DHT22;41687;-33.234;-60.334;2023-11-19T07:03:00;17.00;41.80
55771;DHT22;41687;-33.234;-60.334;2023-11-19T07:05:28;17.10;42.30
55771;DHT22;41687;-33.234;-60.334;2023-11-19T07:07:56;17.00;43.60
55771;DHT22;41687;-33.234;-60.334;2023-11-19T07:10:24;16.90;43.70
55771;DHT22;41687;-33.234;-60.334;2023-11-19T07:12:52;17.00;43.60
55771;DHT22;41687;-33.234;-60.334;2023-11-19T07:15:20;16.90;43.40
55771;DHT22;41687;-33.234;-60.334;2023-11-19T07:17:47;16.90;43.90
55771;DHT22;41687;-33.234;-60.334;2023-11-19T07:20:15;16.90;44.10
55771;DHT22;41687;-33.234;-60.334;2023-11-19T07:22:43;16.90;43.70
55771;DHT22;41687;-33.234;-60.334;2023-11-19T07:25:14;16.80;44.40
55771;DHT22;41687;-33.234;-60.334;2023-11-19T07:27:41;16.80;45.20
55771;DHT22;41687;-33.234;-60.334;2023-11-19T07:30:10;16.70;45.50
55771;DHT22;41687;-33.234;-60.334;2023-11-19T07:32:37;16.70;46.90
55771;DHT22;41687;-33.234;-60.334;2023-11-19T07:35:06;16.60;46.60
55771;DHT22;41687;-33.234;-60.334;2023-11-19T07:37:34;16.70;45.50
55771;DHT22;41687;-33.234;-60.334;2023-11-19T07:40:01;16.70;45.20
55771;DHT22;41687;-33.234;-60.334;2023-11-19T07:42:30;16.70;44.80
55771;DHT22;41687;-33.234;-60.334;2023-11-19T07:44:58;16.70;45.60
55771;DHT22;41687;-33.234;-60.334;2023-11-19T07:47:26;16.70;45.40
55771;DHT22;41687;-33.234;-60.334;2023-11-19T07:49:55;16.60;45.60
55771;DHT22;41687;-33.234;-60.334;2023-11-19T07:52:23;16.60;44.80
55771;DHT22;41687;-33.234;-60.334;2023-11-19T07:54:51;16.60;46.50
55771;DHT22;41687;-33.234;-60.334;2023-11-19T07:57:18;16.60;46.40
55771;DHT22;41687;-33.234;-60.334;2023-11-19T07:59:47;16.50;47.00
55771;DHT22;41687;-33.234;-60.334;2023-11-19T08:02:15;16.50;47.60
55771;DHT22;41687;-33.234;-60.334;2023-11-19T08:04:43;16.50;47.50
55771;DHT22;41687;-33.234;-60.334;2023-11-19T08:07:13;16.50;48.00
55771;DHT22;41687;-33.234;-60.334;2023-11-19T08:09:41;16.50;48.00
55771;DHT22;41687;-33.234;-60.334;2023-11-19T08:12:09;16.50;47.10
55771;DHT22;41687;-33.234;-60.334;2023-11-19T08:14:37;16.50;47.40
55771;DHT22;41687;-33.234;-60.334;2023-11-19T08:17:04;16.50;47.50
55771;DHT22;41687;-33.234;-60.334;2023-11-19T08:19:32;16.50;47.20
55771;DHT22;41687;-33.234;-60.334;2023-11-19T08:22:00;16.50;47.60
55771;DHT22;41687;-33.234;-60.334;2023-11-19T08:24:27;16.40;47.70
55771;DHT22;41687;-33.234;-60.334;2023-11-19T08:26:55;16.30;47.60
55771;DHT22;41687;-33.234;-60.334;2023-11-19T08:29:23;16.30;48.70
55771;DHT22;41687;-33.234;-60.334;2023-11-19T08:31:52;16.30;48.90
55771;DHT22;41687;-33.234;-60.334;2023-11-19T08:34:19;16.30;48.80
55771;DHT22;41687;-33.234;-60.334;2023-11-19T08:36:50;16.20;49.30
55771;DHT22;41687;-33.234;-60.334;2023-11-19T08:39:20;16.20;49.10
55771;DHT22;41687;-33.234;-60.334;2023-11-19T08:41:51;16.20;49.40
55771;DHT22;41687;-33.234;-60.334;2023-11-19T08:44:18;16.20;49.20
55771;DHT22;41687;-33.234;-60.334;2023-11-19T08:46:48;16.20;49.70
55771;DHT22;41687;-33.234;-60.334;2023-11-19T08:49:16;16.10;50.20
55771;DHT22;41687;-33.234;-60.334;2023-11-19T08:51:44;16.10;50.60
55771;DHT22;41687;-33.234;-60.334;2023-11-19T08:54:12;16.00;50.00
55771;DHT22;41687;-33.234;-60.334;2023-11-19T08:56:40;16.00;50.40
55771;DHT22;41687;-33.234;-60.334;2023-11-19T08:59:08;15.90;49.70
55771;DHT22;41687;-33.234;-60.334;2023-11-19T09:01:35;16.00;50.20
55771;DHT22;41687;-33.234;-60.334;2023-11-19T09:04:04;16.00;49.90
55771;DHT22;41687;-33.234;-60.334;2023-11-19T09:06:31;15.90;49.70
55771;DHT22;41687;-33.234;-60.334;2023-11-19T09:09:00;15.90;49.70
55771;DHT22;41687;-33.234;-60.334;2023-11-19T09:11:30;15.90;50.20
55771;DHT22;41687;-33.234;-60.334;2023-11-19T09:13:57;15.80;50.30
55771;DHT22;41687;-33.234;-60.334;2023-11-19T09:16:25;15.90;50.10
55771;DHT22;41687;-33.234;-60.334;2023-11-19T09:18:53;15.90;50.40
55771;DHT22;41687;-33.234;-60.334;2023-11-19T09:21:21;16.00;49.90
55771;DHT22;41687;-33.234;-60.334;2023-11-19T09:23:49;16.10;49.80
55771;DHT22;41687;-33.234;-60.334;2023-11-19T09:26:16;16.10;49.20
55771;DHT22;41687;-33.234;-60.334;2023-11-19T09:28:44;16.10;49.40
55771;DHT22;41687;-33.234;-60.334;2023-11-19T09:31:15;16.10;48.80
55771;DHT22;41687;-33.234;-60.334;2023-11-19T09:33:44;16.30;47.70
55771;DHT22;41687;-33.234;-60.334;2023-11-19T09:36:15;16.40;45.90
55771;DHT22;41687;-33.234;-60.334;2023-11-19T09:38:44;16.50;44.40
55771;DHT22;41687;-33.234;-60.334;2023-11-19T09:41:12;16.60;44.10
55771;DHT22;41687;-33.234;-60.334;2023-11-19T09:43:40;16.70;44.20
55771;DHT22;41687;-33.234;-60.334;2023-11-19T09:46:12;16.70;44.20
55771;DHT22;41687;-33.234;-60.334;2023-11-19T09:48:41;16.80;44.40
55771;DHT22;41687;-33.234;-60.334;2023-11-19T09:51:10;16.90;44.40
55771;DHT22;41687;-33.234;-60.334;2023-11-19T09:53:39;16.90;44.70
55771;DHT22;41687;-33.234;-60.334;2023-11-19T09:56:10;17.00;44.00
55771;DHT22;41687;-33.234;-60.334;2023-11-19T09:58:38;17.00;44.90
55771;DHT22;41687;-33.234;-60.334;2023-11-19T10:01:06;17.10;45.00
55771;DHT22;41687;-33.234;-60.334;2023-11-19T10:03:40;17.20;45.90
55771;DHT22;41687;-33.234;-60.334;2023-11-19T10:06:11;17.30;45.00
55771;DHT22;41687;-33.234;-60.334;2023-11-19T10:08:41;17.30;44.80
55771;DHT22;41687;-33.234;-60.334;2023-11-19T10:11:09;17.40;44.80
55771;DHT22;41687;-33.234;-60.334;2023-11-19T10:13:40;17.50;44.90
55771;DHT22;41687;-33.234;-60.334;2023-11-19T10:16:12;17.50;44.70
55771;DHT22;41687;-33.234;-60.334;2023-11-19T10:18:47;17.70;45.60
55771;DHT22;41687;-33.234;-60.334;2023-11-19T10:21:16;17.80;44.90
55771;DHT22;41687;-33.234;-60.334;2023-11-19T10:23:57;17.90;46.10
55771;DHT22;41687;-33.234;-60.334;2023-11-19T10:26:27;18.00;45.90
55771;DHT22;41687;-33.234;-60.334;2023-11-19T10:28:56;18.10;45.70
55771;DHT22;41687;-33.234;-60.334;2023-11-19T10:31:24;18.30;45.80
55771;DHT22;41687;-33.234;-60.334;2023-11-19T10:33:53;18.40;45.60
55771;DHT22;41687;-33.234;-60.334;2023-11-19T10:36:21;18.50;46.20
55771;DHT22;41687;-33.234;-60.334;2023-11-19T10:38:55;18.60;46.50
55771;DHT22;41687;-33.234;-60.334;2023-11-19T10:41:30;18.70;45.30
55771;DHT22;41687;-33.234;-60.334;2023-11-19T10:43:59;18.80;44.50
55771;DHT22;41687;-33.234;-60.334;2023-11-19T10:46:56;18.90;45.30
55771;DHT22;41687;-33.234;-60.334;2023-11-19T10:49:24;19.20;44.70
55771;DHT22;41687;-33.234;-60.334;2023-11-19T10:51:52;19.30;44.50
55771;DHT22;41687;-33.234;-60.334;2023-11-19T10:54:20;19.50;44.30
55771;DHT22;41687;-33.234;-60.334;2023-11-19T10:56:55;19.60;42.80
55771;DHT22;41687;-33.234;-60.334;2023-11-19T10:59:25;19.70;42.70
55771;DHT22;41687;-33.234;-60.334;2023-11-19T11:01:55;19.90;41.60
55771;DHT22;41687;-33.234;-60.334;2023-11-19T11:04:24;20.10;41.00
55771;DHT22;41687;-33.234;-60.334;2023-11-19T11:06:55;20.30;40.70
55771;DHT22;41687;-33.234;-60.334;2023-11-19T11:09:30;20.60;41.60
55771;DHT22;41687;-33.234;-60.334;2023-11-19T11:12:00;20.90;39.80
55771;DHT22;41687;-33.234;-60.334;2023-11-19T11:14:28;21.10;38.70
55771;DHT22;41687;-33.234;-60.334;2023-11-19T11:16:56;21.30;37.20
55771;DHT22;41687;-33.234;-60.334;2023-11-19T11:19:25;21.40;37.80
55771;DHT22;41687;-33.234;-60.334;2023-11-19T11:21:54;21.50;35.50
55771;DHT22;41687;-33.234;-60.334;2023-11-19T11:24:31;21.50;34.90
55771;DHT22;41687;-33.234;-60.334;2023-11-19T11:32:45;21.70;31.90
55771;DHT22;41687;-33.234;-60.334;2023-11-19T11:35:24;21.70;31.80
55771;DHT22;41687;-33.234;-60.334;2023-11-19T11:38:07;21.80;31.60
55771;DHT22;41687;-33.234;-60.334;2023-11-19T11:40:35;21.90;30.10
55771;DHT22;41687;-33.234;-60.334;2023-11-19T11:43:03;21.90;30.10
55771;DHT22;41687;-33.234;-60.334;2023-11-19T11:45:37;22.10;30.80
55771;DHT22;41687;-33.234;-60.334;2023-11-19T11:48:09;22.10;29.30
55771;DHT22;41687;-33.234;-60.334;2023-11-19T11:50:49;22.20;29.60
55771;DHT22;41687;-33.234;-60.334;2023-11-19T11:53:18;22.30;29.30
55771;DHT22;41687;-33.234;-60.334;2023-11-19T11:58:20;22.50;29.30
55771;DHT22;41687;-33.234;-60.334;2023-11-19T12:00:48;22.60;29.40
55771;DHT22;41687;-33.234;-60.334;2023-11-19T12:03:20;22.80;30.50
55771;DHT22;41687;-33.234;-60.334;2023-11-19T12:05:51;23.00;29.80
55771;DHT22;41687;-33.234;-60.334;2023-11-19T12:08:22;23.10;30.60
55771;DHT22;41687;-33.234;-60.334;2023-11-19T12:10:53;23.30;31.00
55771;DHT22;41687;-33.234;-60.334;2023-11-19T12:13:24;23.50;30.10
55771;DHT22;41687;-33.234;-60.334;2023-11-19T12:18:34;23.80;29.60
55771;DHT22;41687;-33.234;-60.334;2023-11-19T12:21:02;24.00;29.20
55771;DHT22;41687;-33.234;-60.334;2023-11-19T12:23:33;24.10;30.00
55771;DHT22;41687;-33.234;-60.334;2023-11-19T12:26:01;24.20;30.90
55771;DHT22;41687;-33.234;-60.334;2023-11-19T12:28:28;24.40;29.70
55771;DHT22;41687;-33.234;-60.334;2023-11-19T12:31:07;24.60;29.50
55771;DHT22;41687;-33.234;-60.334;2023-11-19T12:33:36;24.70;29.60
55771;DHT22;41687;-33.234;-60.334;2023-11-19T12:36:05;24.70;28.50
55771;DHT22;41687;-33.234;-60.334;2023-11-19T12:38:33;24.90;29.00
55771;DHT22;41687;-33.234;-60.334;2023-11-19T12:41:04;25.00;28.80
55771;DHT22;41687;-33.234;-60.334;2023-11-19T12:43:33;25.20;28.60
55771;DHT22;41687;-33.234;-60.334;2023-11-19T12:46:23;25.20;28.70
55771;DHT22;41687;-33.234;-60.334;2023-11-19T12:48:53;25.30;27.70
55771;DHT22;41687;-33.234;-60.334;2023-11-19T12:51:20;25.50;29.40
55771;DHT22;41687;-33.234;-60.334;2023-11-19T12:53:52;25.60;28.80
55771;DHT22;41687;-33.234;-60.334;2023-11-19T12:56:25;25.80;28.90
55771;DHT22;41687;-33.234;-60.334;2023-11-19T12:58:53;25.90;30.00
55771;DHT22;41687;-33.234;-60.334;2023-11-19T13:01:21;26.00;29.00
55771;DHT22;41687;-33.234;-60.334;2023-11-19T13:03:48;26.20;28.90
55771;DHT22;41687;-33.234;-60.334;2023-11-19T13:06:18;26.30;28.40
55771;DHT22;41687;-33.234;-60.334;2023-11-19T13:08:50;26.40;27.90
55771;DHT22;41687;-33.234;-60.334;2023-11-19T13:11:34;26.50;27.20
55771;DHT22;41687;-33.234;-60.334;2023-11-19T13:14:04;26.70;26.70
55771;DHT22;41687;-33.234;-60.334;2023-11-19T13:16:32;26.70;27.60
55771;DHT22;41687;-33.234;-60.334;2023-11-19T13:19:00;26.90;27.90
55771;DHT22;41687;-33.234;-60.334;2023-11-19T13:21:28;27.00;28.20
55771;DHT22;41687;-33.234;-60.334;2023-11-19T13:23:57;27.20;28.10
55771;DHT22;41687;-33.234;-60.334;2023-11-19T13:26:24;27.30;27.20
55771;DHT22;41687;-33.234;-60.334;2023-11-19T13:28:54;27.40;28.00
55771;DHT22;41687;-33.234;-60.334;2023-11-19T13:31:22;27.50;27.60
55771;DHT22;41687;-33.234;-60.334;2023-11-19T13:33:49;27.70;27.60
55771;DHT22;41687;-33.234;-60.334;2023-11-19T13:36:17;27.80;26.20
55771;DHT22;41687;-33.234;-60.334;2023-11-19T13:38:45;27.80;27.60
55771;DHT22;41687;-33.234;-60.334;2023-11-19T13:41:13;27.80;27.30
55771;DHT22;41687;-33.234;-60.334;2023-11-19T13:43:41;28.00;26.90
55771;DHT22;41687;-33.234;-60.334;2023-11-19T13:46:08;28.20;26.10
55771;DHT22;41687;-33.234;-60.334;2023-11-19T13:48:39;28.40;25.50
55771;DHT22;41687;-33.234;-60.334;2023-11-19T13:51:07;28.40;27.30
55771;DHT22;41687;-33.234;-60.334;2023-11-19T13:53:36;28.30;27.40
55771;DHT22;41687;-33.234;-60.334;2023-11-19T13:56:04;28.50;27.90
55771;DHT22;41687;-33.234;-60.334;2023-11-19T13:58:33;28.40;26.90
55771;DHT22;41687;-33.234;-60.334;2023-11-19T14:01:00;28.40;27.40
55771;DHT22;41687;-33.234;-60.334;2023-11-19T14:03:28;28.10;27.30
55771;DHT22;41687;-33.234;-60.334;2023-11-19T14:05:56;27.90;26.40
55771;DHT22;41687;-33.234;-60.334;2023-11-19T14:08:25;27.80;27.00
55771;DHT22;41687;-33.234;-60.334;2023-11-19T14:10:53;27.70;28.30
55771;DHT22;41687;-33.234;-60.334;2023-11-19T14:13:23;28.00;28.00
55771;DHT22;41687;-33.234;-60.334;2023-11-19T14:15:51;28.10;27.80
55771;DHT22;41687;-33.234;-60.334;2023-11-19T14:18:19;27.80;26.60
55771;DHT22;41687;-33.234;-60.334;2023-11-19T14:20:46;28.00;27.70
55771;DHT22;41687;-33.234;-60.334;2023-11-19T14:23:14;27.70;27.80
55771;DHT22;41687;-33.234;-60.334;2023-11-19T14:25:42;27.80;27.90
55771;DHT22;41687;-33.234;-60.334;2023-11-19T14:28:10;27.70;27.90
55771;DHT22;41687;-33.234;-60.334;2023-11-19T14:30:38;27.60;28.20
55771;DHT22;41687;-33.234;-60.334;2023-11-19T14:33:05;27.50;28.30
55771;DHT22;41687;-33.234;-60.334;2023-11-19T14:35:34;27.50;28.20
55771;DHT22;41687;-33.234;-60.334;2023-11-19T14:38:02;27.20;27.30
55771;DHT22;41687;-33.234;-60.334;2023-11-19T14:40:32;27.30;28.70
55771;DHT22;41687;-33.234;-60.334;2023-11-19T14:42:59;27.10;27.90
55771;DHT22;41687;-33.234;-60.334;2023-11-19T14:45:27;26.40;27.70
55771;DHT22;41687;-33.234;-60.334;2023-11-19T14:47:56;26.40;28.80
55771;DHT22;41687;-33.234;-60.334;2023-11-19T14:50:24;26.50;28.00
55771;DHT22;41687;-33.234;-60.334;2023-11-19T14:52:51;26.40;27.70
55771;DHT22;41687;-33.234;-60.334;2023-11-19T14:55:19;25.80;27.90
55771;DHT22;41687;-33.234;-60.334;2023-11-19T14:57:47;25.80;28.60
55771;DHT22;41687;-33.234;-60.334;2023-11-19T15:00:16;25.80;28.30
55771;DHT22;41687;-33.234;-60.334;2023-11-19T15:02:44;25.90;28.30
55771;DHT22;41687;-33.234;-60.334;2023-11-19T15:05:12;26.20;28.80
55771;DHT22;41687;-33.234;-60.334;2023-11-19T15:07:40;26.50;27.50
55771;DHT22;41687;-33.234;-60.334;2023-11-19T15:10:09;26.20;26.40